sensor_id;sensor_type;location;lat;lon;timestamp;temperature;humidity
3071;DHT22;1546;47.208;9.038;2022-12-20T00:00:50;4.90;99.90
3071;DHT22;1546;47.208;9.038;2022-12-20T00:03:17;4.90;99.90
3071;DHT22;1546;47.208;9.038;2022-12-20T00:05:44;4.70;99.90
3071;DHT22;1546;47.208;9.038;2022-12-20T00:08:12;4.60;99.90
3071;DHT22;1546;47.208;9.038;2022-12-20T00:10:42;4.60;99.90
3071;DHT22;1546;47.208;9.038;2022-12-20T00:13:10;4.50;99.90
3071;DHT22;1546;47.208;9.038;2022-12-20T00:15:36;4.50;99.90
3071;DHT22;1546;47.208;9.038;2022-12-20T00:18:03;4.70;99.90
3071;DHT22;1546;47.208;9.038;2022-12-20T00:20:31;4.50;99.90
3071;DHT22;1546;47.208;9.038;2022-12-20T00:22:57;4.50;99.90
3071;DHT22;1546;47.208;9.038;2022-12-20T00:25:24;4.50;99.90
3071;DHT22;1546;47.208;9.038;2022-12-20T00:27:53;4.50;99.90
3071;DHT22;1546;47.208;9.038;2022-12-20T00:30:20;4.50;99.90
3071;DHT22;1546;47.208;9.038;2022-12-20T00:32:46;4.60;99.90
3071;DHT22;1546;47.208;9.038;2022-12-20T00:35:13;4.50;99.90
3071;DHT22;1546;47.208;9.038;2022-12-20T00:37:40;4.40;99.90
3071;DHT22;1546;47.208;9.038;2022-12-20T00:40:08;4.30;99.90
3071;DHT22;1546;47.208;9.038;2022-12-20T00:42:35;4.50;99.90
3071;DHT22;1546;47.208;9.038;2022-12-20T00:45:04;4.50;99.90
3071;DHT22;1546;47.208;9.038;2022-12-20T00:47:30;4.50;99.90
3071;DHT22;1546;47.208;9.038;2022-12-20T00:49:58;4.60;99.90
3071;DHT22;1546;47.208;9.038;2022-12-20T00:52:24;4.80;99.90
3071;DHT22;1546;47.208;9.038;2022-12-20T00:54:51;4.80;99.90
3071;DHT22;1546;47.208;9.038;2022-12-20T00:57:18;5.00;99.90
3071;DHT22;1546;47.208;9.038;2022-12-20T00:59:45;5.00;99.90
3071;DHT22;1546;47.208;9.038;2022-12-20T01:02:13;4.90;99.90
3071;DHT22;1546;47.208;9.038;2022-12-20T01:04:40;5.00;99.90
3071;DHT22;1546;47.208;9.038;2022-12-20T01:07:06;5.10;99.90
3071;DHT22;1546;47.208;9.038;2022-12-20T01:09:33;5.00;99.90
3071;DHT22;1546;47.208;9.038;2022-12-20T01:12:00;4.90;99.90
3071;DHT22;1546;47.208;9.038;2022-12-20T01:14:27;5.00;99.90
3071;DHT22;1546;47.208;9.038;2022-12-20T01:16:54;4.90;99.90
3071;DHT22;1546;47.208;9.038;2022-12-20T01:19:22;4.70;99.90
3071;DHT22;1546;47.208;9.038;2022-12-20T01:21:49;4.70;99.90
3071;DHT22;1546;47.208;9.038;2022-12-20T01:24:17;4.70;99.90
3071;DHT22;1546;47.208;9.038;2022-12-20T01:26:44;4.50;99.90
3071;DHT22;1546;47.208;9.038;2022-12-20T01:29:12;4.60;99.90
3071;DHT22;1546;47.208;9.038;2022-12-20T01:31:40;5.10;99.90
3071;DHT22;1546;47.208;9.038;2022-12-20T01:34:06;4.10;99.90
3071;DHT22;1546;47.208;9.038;2022-12-20T01:36:36;4.30;99.90
3071;DHT22;1546;47.208;9.038;2022-12-20T01:39:05;4.50;99.90
3071;DHT22;1546;47.208;9.038;2022-12-20T01:41:35;4.50;99.90
3071;DHT22;1546;47.208;9.038;2022-12-20T01:44:04;4.50;99.90
3071;DHT22;1546;47.208;9.038;2022-12-20T01:46:32;4.60;99.90
3071;DHT22;1546;47.208;9.038;2022-12-20T01:49:03;4.70;99.90
3071;DHT22;1546;47.208;9.038;2022-12-20T01:51:33;4.80;99.90
3071;DHT22;1546;47.208;9.038;2022-12-20T01:54:05;4.70;99.90
3071;DHT22;1546;47.208;9.038;2022-12-20T01:56:34;4.80;99.90
3071;DHT22;1546;47.208;9.038;2022-12-20T01:59:01;4.80;99.90
3071;DHT22;1546;47.208;9.038;2022-12-20T02:01:28;4.80;99.90
3071;DHT22;1546;47.208;9.038;2022-12-20T02:03:55;4.90;99.90
3071;DHT22;1546;47.208;9.038;2022-12-20T02:06:24;4.80;99.90
3071;DHT22;1546;47.208;9.038;2022-12-20T02:08:54;4.90;99.90
3071;DHT22;1546;47.208;9.038;2022-12-20T02:11:34;5.10;99.90
3071;DHT22;1546;47.208;9.038;2022-12-20T02:14:13;5.10;99.90
3071;DHT22;1546;47.208;9.038;2022-12-20T02:16:47;5.50;99.90
3071;DHT22;1546;47.208;9.038;2022-12-20T02:19:31;5.20;99.90
3071;DHT22;1546;47.208;9.038;2022-12-20T02:22:12;5.40;99.90
3071;DHT22;1546;47.208;9.038;2022-12-20T02:25:08;5.40;99.90
3071;DHT22;1546;47.208;9.038;2022-12-20T02:27:47;5.30;99.90
3071;DHT22;1546;47.208;9.038;2022-12-20T02:30:21;5.50;99.90
3071;DHT22;1546;47.208;9.038;2022-12-20T02:32:52;5.50;99.90
3071;DHT22;1546;47.208;9.038;2022-12-20T02:35:21;5.20;99.90
3071;DHT22;1546;47.208;9.038;2022-12-20T02:37:50;5.50;99.90
3071;DHT22;1546;47.208;9.038;2022-12-20T02:40:21;5.50;99.90
3071;DHT22;1546;47.208;9.038;2022-12-20T02:42:52;5.50;99.90
3071;DHT22;1546;47.208;9.038;2022-12-20T02:45:24;5.60;99.90
3071;DHT22;1546;47.208;9.038;2022-12-20T02:47:54;5.70;99.90
3071;DHT22;1546;47.208;9.038;2022-12-20T02:50:24;5.60;99.90
3071;DHT22;1546;47.208;9.038;2022-12-20T02:52:53;5.40;99.90
3071;DHT22;1546;47.208;9.038;2022-12-20T02:55:23;5.50;99.90
3071;DHT22;1546;47.208;9.038;2022-12-20T02:57:55;5.30;99.90
3071;DHT22;1546;47.208;9.038;2022-12-20T03:00:31;5.30;99.90
3071;DHT22;1546;47.208;9.038;2022-12-20T03:02:59;5.30;99.90
3071;DHT22;1546;47.208;9.038;2022-12-20T03:05:46;5.30;99.90
3071;DHT22;1546;47.208;9.038;2022-12-20T03:08:13;5.30;99.90
3071;DHT22;1546;47.208;9.038;2022-12-20T03:10:40;5.60;99.90
3071;DHT22;1546;47.208;9.038;2022-12-20T03:13:06;5.50;99.90
3071;DHT22;1546;47.208;9.038;2022-12-20T03:15:35;5.40;99.90
3071;DHT22;1546;47.208;9.038;2022-12-20T03:18:02;5.40;99.90
3071;DHT22;1546;47.208;9.038;2022-12-20T03:20:29;5.40;99.90
3071;DHT22;1546;47.208;9.038;2022-12-20T03:22:56;5.40;99.90
3071;DHT22;1546;47.208;9.038;2022-12-20T03:25:23;5.40;99.90
3071;DHT22;1546;47.208;9.038;2022-12-20T03:27:50;5.40;99.90
3071;DHT22;1546;47.208;9.038;2022-12-20T03:30:17;5.80;99.90
3071;DHT22;1546;47.208;9.038;2022-12-20T03:32:46;5.80;99.90
3071;DHT22;1546;47.208;9.038;2022-12-20T03:35:13;5.80;99.90
3071;DHT22;1546;47.208;9.038;2022-12-20T03:37:40;6.60;99.90
3071;DHT22;1546;47.208;9.038;2022-12-20T03:40:08;5.70;99.90
3071;DHT22;1546;47.208;9.038;2022-12-20T03:42:36;5.20;99.90
3071;DHT22;1546;47.208;9.038;2022-12-20T03:45:03;6.00;99.90
3071;DHT22;1546;47.208;9.038;2022-12-20T03:47:30;5.40;99.90
3071;DHT22;1546;47.208;9.038;2022-12-20T03:49:59;5.30;99.90
3071;DHT22;1546;47.208;9.038;2022-12-20T03:52:26;5.40;99.90
3071;DHT22;1546;47.208;9.038;2022-12-20T03:54:52;5.50;99.90
3071;DHT22;1546;47.208;9.038;2022-12-20T03:57:19;5.40;99.90
3071;DHT22;1546;47.208;9.038;2022-12-20T03:59:46;5.20;99.90
3071;DHT22;1546;47.208;9.038;2022-12-20T04:02:13;5.00;99.90
3071;DHT22;1546;47.208;9.038;2022-12-20T04:04:40;4.90;99.90
3071;DHT22;1546;47.208;9.038;2022-12-20T04:07:08;4.90;99.90
3071;DHT22;1546;47.208;9.038;2022-12-20T04:09:35;4.90;99.90
3071;DHT22;1546;47.208;9.038;2022-12-20T04:12:02;4.90;99.90
3071;DHT22;1546;47.208;9.038;2022-12-20T04:14:29;4.80;99.90
3071;DHT22;1546;47.208;9.038;2022-12-20T04:16:56;4.90;99.90
3071;DHT22;1546;47.208;9.038;2022-12-20T04:19:23;4.90;99.90
3071;DHT22;1546;47.208;9.038;2022-12-20T04:21:50;4.90;99.90
3071;DHT22;1546;47.208;9.038;2022-12-20T04:24:18;5.10;99.90
3071;DHT22;1546;47.208;9.038;2022-12-20T04:26:45;5.10;99.90
3071;DHT22;1546;47.208;9.038;2022-12-20T04:29:13;5.10;99.90
3071;DHT22;1546;47.208;9.038;2022-12-20T04:31:40;5.40;99.90
3071;DHT22;1546;47.208;9.038;2022-12-20T04:34:07;5.00;99.90
3071;DHT22;1546;47.208;9.038;2022-12-20T04:36:34;5.00;99.90
3071;DHT22;1546;47.208;9.038;2022-12-20T04:39:01;5.00;99.90
3071;DHT22;1546;47.208;9.038;2022-12-20T04:41:29;4.50;99.90
3071;DHT22;1546;47.208;9.038;2022-12-20T04:43:57;4.80;99.90
3071;DHT22;1546;47.208;9.038;2022-12-20T04:46:25;4.90;99.90
3071;DHT22;1546;47.208;9.038;2022-12-20T04:48:52;5.00;99.90
3071;DHT22;1546;47.208;9.038;2022-12-20T04:51:19;5.20;99.90
3071;DHT22;1546;47.208;9.038;2022-12-20T04:53:45;5.60;99.90
3071;DHT22;1546;47.208;9.038;2022-12-20T04:56:13;5.40;99.90
3071;DHT22;1546;47.208;9.038;2022-12-20T04:58:42;5.70;99.90
3071;DHT22;1546;47.208;9.038;2022-12-20T05:01:09;5.40;99.90
3071;DHT22;1546;47.208;9.038;2022-12-20T05:03:37;5.90;99.90
3071;DHT22;1546;47.208;9.038;2022-12-20T05:06:04;5.50;99.90
3071;DHT22;1546;47.208;9.038;2022-12-20T05:08:32;5.00;99.90
3071;DHT22;1546;47.208;9.038;2022-12-20T05:10:59;5.10;99.90
3071;DHT22;1546;47.208;9.038;2022-12-20T05:13:26;5.40;99.90
3071;DHT22;1546;47.208;9.038;2022-12-20T05:15:54;5.30;99.90
3071;DHT22;1546;47.208;9.038;2022-12-20T05:18:22;5.30;99.90
3071;DHT22;1546;47.208;9.038;2022-12-20T05:20:49;5.40;99.90
3071;DHT22;1546;47.208;9.038;2022-12-20T05:23:37;5.30;99.90
3071;DHT22;1546;47.208;9.038;2022-12-20T05:26:22;5.20;99.90
3071;DHT22;1546;47.208;9.038;2022-12-20T05:28:49;5.20;99.90
3071;DHT22;1546;47.208;9.038;2022-12-20T05:31:18;5.10;99.90
3071;DHT22;1546;47.208;9.038;2022-12-20T05:33:45;4.90;99.90
3071;DHT22;1546;47.208;9.038;2022-12-20T05:36:12;4.70;99.90
3071;DHT22;1546;47.208;9.038;2022-12-20T05:38:39;5.10;99.90
3071;DHT22;1546;47.208;9.038;2022-12-20T05:41:06;5.10;99.90
3071;DHT22;1546;47.208;9.038;2022-12-20T05:43:33;5.10;99.90
3071;DHT22;1546;47.208;9.038;2022-12-20T05:46:00;5.00;99.90
3071;DHT22;1546;47.208;9.038;2022-12-20T05:48:29;4.80;99.90
3071;DHT22;1546;47.208;9.038;2022-12-20T05:50:55;5.10;99.90
3071;DHT22;1546;47.208;9.038;2022-12-20T05:53:22;4.70;99.90
3071;DHT22;1546;47.208;9.038;2022-12-20T05:55:51;4.70;99.90
3071;DHT22;1546;47.208;9.038;2022-12-20T05:58:19;4.80;99.90
3071;DHT22;1546;47.208;9.038;2022-12-20T06:00:46;4.80;99.90
3071;DHT22;1546;47.208;9.038;2022-12-20T06:03:13;4.80;99.90
3071;DHT22;1546;47.208;9.038;2022-12-20T06:05:41;4.60;99.90
3071;DHT22;1546;47.208;9.038;2022-12-20T06:08:10;4.70;99.90
3071;DHT22;1546;47.208;9.038;2022-12-20T06:10:38;4.70;99.90
3071;DHT22;1546;47.208;9.038;2022-12-20T06:13:06;4.80;99.90
3071;DHT22;1546;47.208;9.038;2022-12-20T06:15:33;4.80;99.90
3071;DHT22;1546;47.208;9.038;2022-12-20T06:18:00;4.80;99.90
3071;DHT22;1546;47.208;9.038;2022-12-20T06:20:28;4.80;99.90
3071;DHT22;1546;47.208;9.038;2022-12-20T06:22:57;4.80;99.90
3071;DHT22;1546;47.208;9.038;2022-12-20T06:25:24;4.90;99.90
3071;DHT22;1546;47.208;9.038;2022-12-20T06:27:51;4.90;99.90
3071;DHT22;1546;47.208;9.038;2022-12-20T06:30:18;4.90;99.90
3071;DHT22;1546;47.208;9.038;2022-12-20T06:32:45;4.90;99.90
3071;DHT22;1546;47.208;9.038;2022-12-20T06:35:13;4.90;99.90
3071;DHT22;1546;47.208;9.038;2022-12-20T06:37:39;5.10;99.90
3071;DHT22;1546;47.208;9.038;2022-12-20T06:40:09;5.10;99.90
3071;DHT22;1546;47.208;9.038;2022-12-20T06:42:37;5.20;99.90
3071;DHT22;1546;47.208;9.038;2022-12-20T06:45:04;5.40;99.90
3071;DHT22;1546;47.208;9.038;2022-12-20T06:47:31;5.50;99.90
3071;DHT22;1546;47.208;9.038;2022-12-20T06:49:58;5.50;99.90
3071;DHT22;1546;47.208;9.038;2022-12-20T06:52:25;5.50;99.90
3071;DHT22;1546;47.208;9.038;2022-12-20T06:54:52;5.50;99.90
3071;DHT22;1546;47.208;9.038;2022-12-20T06:57:20;5.30;99.90
3071;DHT22;1546;47.208;9.038;2022-12-20T06:59:46;5.00;99.90
3071;DHT22;1546;47.208;9.038;2022-12-20T07:02:13;4.90;99.90
3071;DHT22;1546;47.208;9.038;2022-12-20T07:04:40;4.80;99.90
3071;DHT22;1546;47.208;9.038;2022-12-20T07:07:07;5.00;99.90
3071;DHT22;1546;47.208;9.038;2022-12-20T07:09:34;5.00;99.90
3071;DHT22;1546;47.208;9.038;2022-12-20T07:12:02;5.40;99.90
3071;DHT22;1546;47.208;9.038;2022-12-20T07:14:31;5.40;99.90
3071;DHT22;1546;47.208;9.038;2022-12-20T07:16:58;5.30;99.90
3071;DHT22;1546;47.208;9.038;2022-12-20T07:19:25;5.30;99.90
3071;DHT22;1546;47.208;9.038;2022-12-20T07:21:52;5.20;99.90
3071;DHT22;1546;47.208;9.038;2022-12-20T07:24:19;5.30;99.90
3071;DHT22;1546;47.208;9.038;2022-12-20T07:26:45;5.40;99.90
3071;DHT22;1546;47.208;9.038;2022-12-20T07:29:12;5.40;99.90
3071;DHT22;1546;47.208;9.038;2022-12-20T07:31:41;5.50;99.90
3071;DHT22;1546;47.208;9.038;2022-12-20T07:34:07;5.70;99.90
3071;DHT22;1546;47.208;9.038;2022-12-20T07:36:34;5.90;99.90
3071;DHT22;1546;47.208;9.038;2022-12-20T07:39:01;5.80;99.90
3071;DHT22;1546;47.208;9.038;2022-12-20T07:41:28;5.80;99.90
3071;DHT22;1546;47.208;9.038;2022-12-20T07:43:55;5.80;99.90
3071;DHT22;1546;47.208;9.038;2022-12-20T07:46:22;5.80;99.90
3071;DHT22;1546;47.208;9.038;2022-12-20T07:48:51;6.10;99.90
3071;DHT22;1546;47.208;9.038;2022-12-20T07:51:20;5.90;99.90
3071;DHT22;1546;47.208;9.038;2022-12-20T07:53:50;5.90;99.90
3071;DHT22;1546;47.208;9.038;2022-12-20T07:56:18;6.00;99.90
3071;DHT22;1546;47.208;9.038;2022-12-20T07:58:48;6.00;99.90
3071;DHT22;1546;47.208;9.038;2022-12-20T08:01:16;5.90;99.90
3071;DHT22;1546;47.208;9.038;2022-12-20T08:03:48;5.80;99.90
3071;DHT22;1546;47.208;9.038;2022-12-20T08:06:18;5.90;99.90
3071;DHT22;1546;47.208;9.038;2022-12-20T08:08:48;5.90;99.90
3071;DHT22;1546;47.208;9.038;2022-12-20T08:11:17;5.90;99.90
3071;DHT22;1546;47.208;9.038;2022-12-20T08:13:45;6.10;99.90
3071;DHT22;1546;47.208;9.038;2022-12-20T08:16:12;5.40;99.90
3071;DHT22;1546;47.208;9.038;2022-12-20T08:18:39;6.30;99.90
3071;DHT22;1546;47.208;9.038;2022-12-20T08:21:06;6.10;99.90
3071;DHT22;1546;47.208;9.038;2022-12-20T08:23:34;5.80;99.90
3071;DHT22;1546;47.208;9.038;2022-12-20T08:26:01;5.70;99.90
3071;DHT22;1546;47.208;9.038;2022-12-20T08:28:28;5.50;99.90
3071;DHT22;1546;47.208;9.038;2022-12-20T08:30:59;6.30;99.90
3071;DHT22;1546;47.208;9.038;2022-12-20T08:33:26;5.70;99.90
3071;DHT22;1546;47.208;9.038;2022-12-20T08:35:56;5.60;99.90
3071;DHT22;1546;47.208;9.038;2022-12-20T08:38:25;5.60;99.90
3071;DHT22;1546;47.208;9.038;2022-12-20T08:40:53;5.60;99.90
3071;DHT22;1546;47.208;9.038;2022-12-20T08:43:20;5.60;99.90
3071;DHT22;1546;47.208;9.038;2022-12-20T08:45:51;5.80;99.90
3071;DHT22;1546;47.208;9.038;2022-12-20T08:48:19;5.90;99.90
3071;DHT22;1546;47.208;9.038;2022-12-20T08:50:46;5.70;99.90
3071;DHT22;1546;47.208;9.038;2022-12-20T08:53:13;5.70;99.90
3071;DHT22;1546;47.208;9.038;2022-12-20T08:55:39;5.70;99.90
3071;DHT22;1546;47.208;9.038;2022-12-20T08:58:08;5.80;99.90
3071;DHT22;1546;47.208;9.038;2022-12-20T09:00:35;6.00;99.90
3071;DHT22;1546;47.208;9.038;2022-12-20T09:03:01;6.00;99.90
3071;DHT22;1546;47.208;9.038;2022-12-20T09:05:28;6.10;99.90
3071;DHT22;1546;47.208;9.038;2022-12-20T09:07:55;5.20;99.90
3071;DHT22;1546;47.208;9.038;2022-12-20T09:10:22;6.90;99.90
3071;DHT22;1546;47.208;9.038;2022-12-20T09:12:49;6.40;99.90
3071;DHT22;1546;47.208;9.038;2022-12-20T09:15:17;6.60;99.90
3071;DHT22;1546;47.208;9.038;2022-12-20T09:17:44;6.60;99.90
3071;DHT22;1546;47.208;9.038;2022-12-20T09:20:11;6.30;99.90
3071;DHT22;1546;47.208;9.038;2022-12-20T09:22:40;5.00;99.90
3071;DHT22;1546;47.208;9.038;2022-12-20T09:25:07;6.40;99.90
3071;DHT22;1546;47.208;9.038;2022-12-20T09:27:34;6.40;99.90
3071;DHT22;1546;47.208;9.038;2022-12-20T09:30:01;6.50;99.90
3071;DHT22;1546;47.208;9.038;2022-12-20T09:32:29;6.50;99.90
3071;DHT22;1546;47.208;9.038;2022-12-20T09:34:56;6.70;99.90
3071;DHT22;1546;47.208;9.038;2022-12-20T09:37:23;7.10;99.90
3071;DHT22;1546;47.208;9.038;2022-12-20T09:39:50;6.80;99.90
3071;DHT22;1546;47.208;9.038;2022-12-20T09:42:17;6.20;99.90
3071;DHT22;1546;47.208;9.038;2022-12-20T09:44:47;7.60;99.90
3071;DHT22;1546;47.208;9.038;2022-12-20T09:47:16;6.80;99.90
3071;DHT22;1546;47.208;9.038;2022-12-20T09:49:48;6.90;99.90
3071;DHT22;1546;47.208;9.038;2022-12-20T09:55:18;7.00;99.90
3071;DHT22;1546;47.208;9.038;2022-12-20T09:57:57;6.50;99.90
3071;DHT22;1546;47.208;9.038;2022-12-20T10:00:28;7.20;99.90
3071;DHT22;1546;47.208;9.038;2022-12-20T10:02:55;7.40;99.90
3071;DHT22;1546;47.208;9.038;2022-12-20T10:05:28;7.30;99.90
3071;DHT22;1546;47.208;9.038;2022-12-20T10:08:01;7.50;99.90
3071;DHT22;1546;47.208;9.038;2022-12-20T10:10:42;7.80;99.90
3071;DHT22;1546;47.208;9.038;2022-12-20T10:13:22;8.00;99.90
3071;DHT22;1546;47.208;9.038;2022-12-20T10:15:56;8.80;99.90
3071;DHT22;1546;47.208;9.038;2022-12-20T10:18:35;8.00;99.90
3071;DHT22;1546;47.208;9.038;2022-12-20T10:21:10;8.20;99.90
3071;DHT22;1546;47.208;9.038;2022-12-20T10:23:44;7.80;99.90
3071;DHT22;1546;47.208;9.038;2022-12-20T10:26:12;8.00;99.90
3071;DHT22;1546;47.208;9.038;2022-12-20T10:28:39;7.80;99.90
3071;DHT22;1546;47.208;9.038;2022-12-20T10:31:10;7.80;99.90
3071;DHT22;1546;47.208;9.038;2022-12-20T10:33:37;7.90;99.90
3071;DHT22;1546;47.208;9.038;2022-12-20T10:36:19;7.80;99.90
3071;DHT22;1546;47.208;9.038;2022-12-20T10:38:48;8.30;99.90
3071;DHT22;1546;47.208;9.038;2022-12-20T10:41:17;9.10;99.90
3071;DHT22;1546;47.208;9.038;2022-12-20T10:43:46;8.40;99.90
3071;DHT22;1546;47.208;9.038;2022-12-20T10:46:14;8.60;99.90
3071;DHT22;1546;47.208;9.038;2022-12-20T10:48:43;9.10;99.90
3071;DHT22;1546;47.208;9.038;2022-12-20T10:51:16;8.80;99.90
3071;DHT22;1546;47.208;9.038;2022-12-20T10:53:53;8.70;99.90
3071;DHT22;1546;47.208;9.038;2022-12-20T10:56:23;8.70;99.90
3071;DHT22;1546;47.208;9.038;2022-12-20T10:58:54;8.60;99.90
3071;DHT22;1546;47.208;9.038;2022-12-20T11:01:24;8.80;99.90
3071;DHT22;1546;47.208;9.038;2022-12-20T11:03:55;8.80;99.90
3071;DHT22;1546;47.208;9.038;2022-12-20T11:06:26;8.30;99.90
3071;DHT22;1546;47.208;9.038;2022-12-20T11:12:11;8.90;99.90
3071;DHT22;1546;47.208;9.038;2022-12-20T11:20:03;9.20;99.90
3071;DHT22;1546;47.208;9.038;2022-12-20T11:22:42;9.40;99.90
3071;DHT22;1546;47.208;9.038;2022-12-20T11:30:46;11.80;99.90
3071;DHT22;1546;47.208;9.038;2022-12-20T11:33:36;12.20;99.30
3071;DHT22;1546;47.208;9.038;2022-12-20T11:38:40;12.20;99.90
3071;DHT22;1546;47.208;9.038;2022-12-20T11:41:16;12.70;99.90
3071;DHT22;1546;47.208;9.038;2022-12-20T11:44:03;13.00;98.20
3071;DHT22;1546;47.208;9.038;2022-12-20T11:46:42;13.10;96.80
3071;DHT22;1546;47.208;9.038;2022-12-20T11:49:32;12.90;95.90
3071;DHT22;1546;47.208;9.038;2022-12-20T11:52:05;12.80;96.50
3071;DHT22;1546;47.208;9.038;2022-12-20T11:54:39;12.10;96.70
3071;DHT22;1546;47.208;9.038;2022-12-20T11:57:13;11.40;95.40
3071;DHT22;1546;47.208;9.038;2022-12-20T11:59:45;10.70;95.90
3071;DHT22;1546;47.208;9.038;2022-12-20T12:02:15;10.40;96.70
3071;DHT22;1546;47.208;9.038;2022-12-20T12:04:46;10.10;97.80
3071;DHT22;1546;47.208;9.038;2022-12-20T12:07:17;9.90;98.70
3071;DHT22;1546;47.208;9.038;2022-12-20T12:09:52;10.10;97.20
3071;DHT22;1546;47.208;9.038;2022-12-20T12:12:24;10.00;97.90
3071;DHT22;1546;47.208;9.038;2022-12-20T12:14:58;9.90;98.70
3071;DHT22;1546;47.208;9.038;2022-12-20T12:17:30;9.90;99.40
3071;DHT22;1546;47.208;9.038;2022-12-20T12:22:53;10.00;98.60
3071;DHT22;1546;47.208;9.038;2022-12-20T12:25:21;10.10;99.10
3071;DHT22;1546;47.208;9.038;2022-12-20T12:27:49;9.60;99.90
3071;DHT22;1546;47.208;9.038;2022-12-20T12:30:16;10.20;99.90
3071;DHT22;1546;47.208;9.038;2022-12-20T12:32:48;10.00;99.90
3071;DHT22;1546;47.208;9.038;2022-12-20T12:35:47;9.90;99.90
3071;DHT22;1546;47.208;9.038;2022-12-20T12:44:31;9.40;99.90
3071;DHT22;1546;47.208;9.038;2022-12-20T12:47:02;9.70;99.90
3071;DHT22;1546;47.208;9.038;2022-12-20T12:49:30;9.90;99.90
3071;DHT22;1546;47.208;9.038;2022-12-20T12:52:00;10.00;99.90
3071;DHT22;1546;47.208;9.038;2022-12-20T12:54:33;9.90;99.90
3071;DHT22;1546;47.208;9.038;2022-12-20T12:57:02;9.90;99.90
3071;DHT22;1546;47.208;9.038;2022-12-20T12:59:51;9.60;99.90
3071;DHT22;1546;47.208;9.038;2022-12-20T13:05:31;9.60;99.90
3071;DHT22;1546;47.208;9.038;2022-12-20T13:07:59;9.80;99.90
3071;DHT22;1546;47.208;9.038;2022-12-20T13:11:00;10.40;99.90
3071;DHT22;1546;47.208;9.038;2022-12-20T13:13:27;11.10;99.90
3071;DHT22;1546;47.208;9.038;2022-12-20T13:16:28;12.30;99.90
3071;DHT22;1546;47.208;9.038;2022-12-20T13:19:04;11.50;99.90
3071;DHT22;1546;47.208;9.038;2022-12-20T13:21:37;11.10;99.90
3071;DHT22;1546;47.208;9.038;2022-12-20T13:24:49;9.90;99.90
3071;DHT22;1546;47.208;9.038;2022-12-20T13:27:29;10.00;99.90
3071;DHT22;1546;47.208;9.038;2022-12-20T13:33:24;9.90;99.90
3071;DHT22;1546;47.208;9.038;2022-12-20T13:36:30;10.70;99.90
3071;DHT22;1546;47.208;9.038;2022-12-20T13:38:59;9.80;99.90
3071;DHT22;1546;47.208;9.038;2022-12-20T13:41:34;9.10;99.90
3071;DHT22;1546;47.208;9.038;2022-12-20T13:44:25;10.00;99.90
3071;DHT22;1546;47.208;9.038;2022-12-20T13:46:59;9.70;99.90
3071;DHT22;1546;47.208;9.038;2022-12-20T13:49:33;9.40;99.90
3071;DHT22;1546;47.208;9.038;2022-12-20T13:54:53;9.50;99.90
3071;DHT22;1546;47.208;9.038;2022-12-20T13:57:26;9.80;99.90
3071;DHT22;1546;47.208;9.038;2022-12-20T13:59:56;9.90;99.90
3071;DHT22;1546;47.208;9.038;2022-12-20T14:02:26;9.40;99.90
3071;DHT22;1546;47.208;9.038;2022-12-20T14:04:58;9.60;99.90
3071;DHT22;1546;47.208;9.038;2022-12-20T14:07:27;9.90;99.90
3071;DHT22;1546;47.208;9.038;2022-12-20T14:09:57;9.90;99.90
3071;DHT22;1546;47.208;9.038;2022-12-20T14:12:25;9.50;99.90
3071;DHT22;1546;47.208;9.038;2022-12-20T14:14:53;9.30;99.90
3071;DHT22;1546;47.208;9.038;2022-12-20T14:17:23;9.20;99.90
3071;DHT22;1546;47.208;9.038;2022-12-20T14:20:14;9.10;99.90
3071;DHT22;1546;47.208;9.038;2022-12-20T14:22:43;9.10;99.90
3071;DHT22;1546;47.208;9.038;2022-12-20T14:25:14;9.00;99.90
3071;DHT22;1546;47.208;9.038;2022-12-20T14:27:43;8.90;99.90
3071;DHT22;1546;47.208;9.038;2022-12-20T14:30:25;9.00;99.90
3071;DHT22;1546;47.208;9.038;2022-12-20T14:32:53;8.50;99.90
3071;DHT22;1546;47.208;9.038;2022-12-20T14:35:22;9.20;99.90
3071;DHT22;1546;47.208;9.038;2022-12-20T14:37:56;8.80;99.90
3071;DHT22;1546;47.208;9.038;2022-12-20T14:40:23;9.20;99.90
3071;DHT22;1546;47.208;9.038;2022-12-20T14:42:50;8.60;99.90
3071;DHT22;1546;47.208;9.038;2022-12-20T14:45:20;9.40;99.90
3071;DHT22;1546;47.208;9.038;2022-12-20T14:47:55;8.80;99.90
3071;DHT22;1546;47.208;9.038;2022-12-20T14:50:28;8.80;99.90
3071;DHT22;1546;47.208;9.038;2022-12-20T14:52:55;8.90;99.90
3071;DHT22;1546;47.208;9.038;2022-12-20T14:55:31;8.90;99.90
3071;DHT22;1546;47.208;9.038;2022-12-20T14:57:58;8.90;99.90
3071;DHT22;1546;47.208;9.038;2022-12-20T15:00:27;9.80;99.90
3071;DHT22;1546;47.208;9.038;2022-12-20T15:03:00;9.10;99.90
3071;DHT22;1546;47.208;9.038;2022-12-20T15:05:48;9.10;99.90
3071;DHT22;1546;47.208;9.038;2022-12-20T15:08:19;8.80;99.90
3071;DHT22;1546;47.208;9.038;2022-12-20T15:10:52;8.80;99.90
3071;DHT22;1546;47.208;9.038;2022-12-20T15:13:21;8.20;99.90
3071;DHT22;1546;47.208;9.038;2022-12-20T15:15:48;8.40;99.90
3071;DHT22;1546;47.208;9.038;2022-12-20T15:18:17;8.50;99.90
3071;DHT22;1546;47.208;9.038;2022-12-20T15:20:48;8.40;99.90
3071;DHT22;1546;47.208;9.038;2022-12-20T15:23:20;8.60;99.90
3071;DHT22;1546;47.208;9.038;2022-12-20T15:25:48;8.60;99.90
3071;DHT22;1546;47.208;9.038;2022-12-20T15:28:16;8.30;99.90
3071;DHT22;1546;47.208;9.038;2022-12-20T15:30:44;7.90;99.90
3071;DHT22;1546;47.208;9.038;2022-12-20T15:33:15;7.40;99.90
3071;DHT22;1546;47.208;9.038;2022-12-20T15:35:42;7.60;99.90
3071;DHT22;1546;47.208;9.038;2022-12-20T15:38:14;7.60;99.90
3071;DHT22;1546;47.208;9.038;2022-12-20T15:40:46;7.50;99.90
3071;DHT22;1546;47.208;9.038;2022-12-20T15:43:14;7.70;99.90
3071;DHT22;1546;47.208;9.038;2022-12-20T15:45:43;7.60;99.90
3071;DHT22;1546;47.208;9.038;2022-12-20T15:48:13;7.50;99.90
3071;DHT22;1546;47.208;9.038;2022-12-20T15:50:43;7.60;99.90
3071;DHT22;1546;47.208;9.038;2022-12-20T15:53:14;7.80;99.90
3071;DHT22;1546;47.208;9.038;2022-12-20T15:55:41;7.60;99.90
3071;DHT22;1546;47.208;9.038;2022-12-20T15:58:09;7.70;99.90
3071;DHT22;1546;47.208;9.038;2022-12-20T16:00:38;7.90;99.90
3071;DHT22;1546;47.208;9.038;2022-12-20T16:03:12;6.80;99.90
3071;DHT22;1546;47.208;9.038;2022-12-20T16:05:40;7.70;99.90
3071;DHT22;1546;47.208;9.038;2022-12-20T16:08:07;8.30;99.90
3071;DHT22;1546;47.208;9.038;2022-12-20T16:10:35;7.50;99.90
3071;DHT22;1546;47.208;9.038;2022-12-20T16:13:03;7.50;99.90
3071;DHT22;1546;47.208;9.038;2022-12-20T16:15:30;7.60;99.90
3071;DHT22;1546;47.208;9.038;2022-12-20T16:17:57;7.60;99.90
3071;DHT22;1546;47.208;9.038;2022-12-20T16:20:24;7.10;99.90
3071;DHT22;1546;47.208;9.038;2022-12-20T16:22:52;7.50;99.90
3071;DHT22;1546;47.208;9.038;2022-12-20T16:25:28;7.50;99.90
3071;DHT22;1546;47.208;9.038;2022-12-20T16:27:57;7.50;99.90
3071;DHT22;1546;47.208;9.038;2022-12-20T16:30:24;7.20;99.90
3071;DHT22;1546;47.208;9.038;2022-12-20T16:32:52;7.40;99.90
3071;DHT22;1546;47.208;9.038;2022-12-20T16:35:23;6.60;99.90
3071;DHT22;1546;47.208;9.038;2022-12-20T16:37:52;7.60;99.90
3071;DHT22;1546;47.208;9.038;2022-12-20T16:40:20;7.80;99.90
3071;DHT22;1546;47.208;9.038;2022-12-20T16:42:47;7.10;99.90
3071;DHT22;1546;47.208;9.038;2022-12-20T16:45:18;7.10;99.90
3071;DHT22;1546;47.208;9.038;2022-12-20T16:47:46;7.00;99.90
3071;DHT22;1546;47.208;9.038;2022-12-20T16:50:13;6.90;99.90
3071;DHT22;1546;47.208;9.038;2022-12-20T16:52:40;6.80;99.90
3071;DHT22;1546;47.208;9.038;2022-12-20T16:55:13;6.70;99.90
3071;DHT22;1546;47.208;9.038;2022-12-20T16:57:40;7.00;99.90
3071;DHT22;1546;47.208;9.038;2022-12-20T17:00:09;7.00;99.90
3071;DHT22;1546;47.208;9.038;2022-12-20T17:02:42;7.50;99.90
3071;DHT22;1546;47.208;9.038;2022-12-20T17:05:22;7.50;99.90
3071;DHT22;1546;47.208;9.038;2022-12-20T17:07:49;7.90;99.90
3071;DHT22;1546;47.208;9.038;2022-12-20T17:10:16;7.00;99.90
3071;DHT22;1546;47.208;9.038;2022-12-20T17:12:43;8.10;99.90